San Luis, MO

4:50 AM CDT en Agosto 22, 2014 (GMT -0500)
Shaw/Tower Grove | Change Station
CLOSE
Current Station
Estación meteorológica personal
Location: St. Louis, MO
Altura: 502 ft
Estaciones meteorológicas cercanas
Aviso en curso: Excessive Heat Warning

Alt 502 ft 38.61 °N, 90.25 °W | Updated 7 minutes ago

Clear
Despejado
81.1 ° F
Sensación térmica 84 ° F
N
0.0
Viento Variable Viento desde SO
Gusts 2.0 mph

Hoy
Alta -- | Baja -- ° F
--% Posibilidad de precipitaciones
Ayer
Alta -- | Baja -- ° F
Precip. -- pul
6:21 AM 7:45 PM
Creciente menguante, 9% visible
Presión 29.95 pul
Visibilidad 10.0 Millas
Nubes Despejado
Índice de calor 84 ° F
Punto de rocío 68 ° F
Humedad 65%
Precipitaciones 0.00 pul
Espesor de la nieve No disponible.
UV 0 de una escala de 12
Polen 11.00 de una escala de 12
Ozono Buena
PM2.5 Moderada
Flu Activity No disponible.
METAR KSTL 220851Z 24011KT 10SM CLR 28/20 A2995

More Conditions Fewer Conditions

Presión 29.95 pul
Visibilidad 10.0 Millas
Nubes Despejado
Índice de calor 84 ° F
Punto de rocío 68 ° F
Humedad 65%
Precipitaciones 0.00 pul
Espesor de la nieve No disponible.
UV 0 de una escala de 12
Polen 11.00 de una escala de 12
Ozono Buena
PM2.5 Moderada
Flu Activity No disponible.
METAR KSTL 220851Z 24011KT 10SM CLR 28/20 A2995

More Conditions Fewer Conditions

10-Day Weather Forecast

Almanac

Astronomía

Aug. 22, 2014 Salida Puesta
Hora real 6:21 AM CDT 7:45 PM CDT
Crepúsculo civil 5:53 AM CDT 8:13 PM CDT
Crepúsculo náutico 5:19 AM CDT 8:46 PM CDT
Crepúsculo astronómico 4:44 AM CDT 9:21 PM CDT
Luna 3:44 AM CDT 5:53 PM CDT
Horas de luz 14h 19m
Horas de luz
13h 24m
Tomorrow will be 2m 18s shorter.
Creciente menguante, 9% of the Moon is Illuminated
Hoy
Creciente menguante
Ago 25
Nueva
Sep 2
Cuarto creciente
Sep 8
Luna llena
Sep 15
Cuarto menguante

Extremos de hoy

Máximos del estado Bajos del estado

Community

WunderPhotos

Upload Photos

1,746,146 ¡fotos cargadas!

Nearby

Calidad del aire

  Calidad del aire Índice AQ Contaminante
Ayer Moderada
PM2.5
Ayer Buena
OZONE
Real Moderada
PM2.5
Real Buena
OZONE
Viernes Moderada
OZONE
Viernes Buena
PM2.5

Grosos de nieve

Estación Profundido Altura
No tenemos constancia de nieve nueva.

Actividad de terremotos

Ciudad Distance Mag. Tiempo y dato
No hay informes recientes de la actividad sísmica.
Magnitud mínima muestra es 2,5.

Temperaturas de aguas costeras

Lugar Temperatura
Sin partes meteorológicos de las estaciones

Estaciones meteorológicas cercanas